Weather Forecast for Al Maktoum Airport 
Wednesday, August 23, 2017 (17:36 UTC)
Al Maktoum International Airport
Last Updated: 23-Aug-2017 (17:34Z)
Wind Dir/Speed: N at 08 kt
Temperature: 33.4°C
Rel. Humidity: 40 %
Pressure: 1002.5 hPa
Visibility: 9000 m
  • METAR OMDW 231730Z 01010KT CAVOK 34/20 Q1002 BECMG 06005KT
DWC AIRPORT WEATHER FORECAST FOR 30 HOUR:
DWC TAF:
TAF OMDW 231654Z 2318/2500 07007KT 8000 NSC 
 BECMG 2402/2404 17010KT 
 BECMG 2410/2412 34015KT 
 BECMG 2416/2418 06005KT=
VALID FROM:
2017-08-23 18:00Z
VALID TILL:
2017-08-25 00:00Z
SURFACE WIND:
ENE'LY 07KT

BECOMING S'LY 10KT FROM 0200Z-0400Z THURSDAY

BECOMING NNW'LY 15KT FROM 1000Z-1200Z THURSDAY

BECOMING ENE'LY 05KT FROM 1600Z-1800Z THURSDAY.
VISIBILITY:
07-09 KM,
20% PROBABILITY OF 3000 M BETWEEN 1000Z-1400Z THURSDAY.

WEATHER:
FINE,
20% PROBABILITY OF BLOWING DUST BETWEEN 1000Z-1400Z THURSDAY.
CLOUD:
NIL SIGNIFICANT.
TEMPERATURE:
MIN TEMPERATURE 28°C AROUND 0230Z THURSDAY

MAX TEMPERATURE 42°C AROUND 1000Z THURSDAY.
HUMIDITY:
MAX HUMIDITY 65% AROUND 0230Z THURSDAY

MIN HUMIDITY 20% AROUND 1000Z THURSDAY.
WIND SHEAR:
NIL SIGNIFICANT.
TEMPERATURE INVERSION:
NIL SIGNIFICANT.
COMMENTS:
NIL.